sensor_id;sensor_type;location;lat;lon;timestamp;temperature;humidity
64032;DHT22;50278;47.796;11.968;2023-04-25T00:01:36;7.90;118.99
64032;DHT22;50278;47.796;11.968;2023-04-25T00:04:03;7.96;118.99
64032;DHT22;50278;47.796;11.968;2023-04-25T00:06:29;8.00;118.99
64032;DHT22;50278;47.796;11.968;2023-04-25T00:08:55;7.91;118.99
64032;DHT22;50278;47.796;11.968;2023-04-25T00:11:22;7.85;118.99
64032;DHT22;50278;47.796;11.968;2023-04-25T00:13:47;7.88;118.99
64032;DHT22;50278;47.796;11.968;2023-04-25T00:16:15;7.84;118.99
64032;DHT22;50278;47.796;11.968;2023-04-25T00:18:41;7.90;118.99
64032;DHT22;50278;47.796;11.968;2023-04-25T00:21:07;7.87;118.99
64032;DHT22;50278;47.796;11.968;2023-04-25T00:23:33;7.87;118.99
64032;DHT22;50278;47.796;11.968;2023-04-25T00:26:00;7.88;118.99
64032;DHT22;50278;47.796;11.968;2023-04-25T00:28:26;7.87;118.99
64032;DHT22;50278;47.796;11.968;2023-04-25T00:30:52;7.96;118.99
64032;DHT22;50278;47.796;11.968;2023-04-25T00:33:17;7.88;118.99
64032;DHT22;50278;47.796;11.968;2023-04-25T00:35:43;7.92;118.99
64032;DHT22;50278;47.796;11.968;2023-04-25T00:38:08;7.94;118.99
64032;DHT22;50278;47.796;11.968;2023-04-25T00:40:35;7.98;118.99
64032;DHT22;50278;47.796;11.968;2023-04-25T00:43:00;8.02;118.99
64032;DHT22;50278;47.796;11.968;2023-04-25T00:45:28;7.94;118.99
64032;DHT22;50278;47.796;11.968;2023-04-25T00:47:55;7.91;118.99
64032;DHT22;50278;47.796;11.968;2023-04-25T00:50:21;7.81;118.99
64032;DHT22;50278;47.796;11.968;2023-04-25T00:52:46;7.77;118.99
64032;DHT22;50278;47.796;11.968;2023-04-25T00:55:12;7.69;118.99
64032;DHT22;50278;47.796;11.968;2023-04-25T00:57:38;7.70;118.99
64032;DHT22;50278;47.796;11.968;2023-04-25T01:00:05;7.61;118.99
64032;DHT22;50278;47.796;11.968;2023-04-25T01:02:32;7.58;118.99
64032;DHT22;50278;47.796;11.968;2023-04-25T01:04:58;7.59;118.99
64032;DHT22;50278;47.796;11.968;2023-04-25T01:07:24;7.67;118.99
64032;DHT22;50278;47.796;11.968;2023-04-25T01:09:54;7.68;118.99
64032;DHT22;50278;47.796;11.968;2023-04-25T01:12:19;7.76;118.99
64032;DHT22;50278;47.796;11.968;2023-04-25T01:14:45;7.73;118.99
64032;DHT22;50278;47.796;11.968;2023-04-25T01:17:11;7.77;118.99
64032;DHT22;50278;47.796;11.968;2023-04-25T01:19:37;7.81;118.99
64032;DHT22;50278;47.796;11.968;2023-04-25T01:22:03;7.76;118.99
64032;DHT22;50278;47.796;11.968;2023-04-25T01:24:31;7.72;118.99
64032;DHT22;50278;47.796;11.968;2023-04-25T01:26:58;7.76;118.99
64032;DHT22;50278;47.796;11.968;2023-04-25T01:29:26;7.83;118.99
64032;DHT22;50278;47.796;11.968;2023-04-25T01:31:52;7.81;118.99
64032;DHT22;50278;47.796;11.968;2023-04-25T01:34:18;7.86;118.99
64032;DHT22;50278;47.796;11.968;2023-04-25T01:36:44;7.63;118.99
64032;DHT22;50278;47.796;11.968;2023-04-25T01:39:09;7.47;118.99
64032;DHT22;50278;47.796;11.968;2023-04-25T01:41:36;7.41;118.99
64032;DHT22;50278;47.796;11.968;2023-04-25T01:44:02;7.49;118.99
64032;DHT22;50278;47.796;11.968;2023-04-25T01:46:29;7.53;118.99
64032;DHT22;50278;47.796;11.968;2023-04-25T01:48:56;7.54;118.99
64032;DHT22;50278;47.796;11.968;2023-04-25T01:51:22;7.50;118.99
64032;DHT22;50278;47.796;11.968;2023-04-25T01:53:47;7.44;118.99
64032;DHT22;50278;47.796;11.968;2023-04-25T01:56:13;7.38;118.99
64032;DHT22;50278;47.796;11.968;2023-04-25T01:58:38;7.42;118.99
64032;DHT22;50278;47.796;11.968;2023-04-25T02:01:23;7.39;118.99
64032;DHT22;50278;47.796;11.968;2023-04-25T02:04:05;7.28;118.99
64032;DHT22;50278;47.796;11.968;2023-04-25T02:06:34;7.34;118.99
64032;DHT22;50278;47.796;11.968;2023-04-25T02:09:00;7.28;118.99
64032;DHT22;50278;47.796;11.968;2023-04-25T02:11:25;7.17;118.99
64032;DHT22;50278;47.796;11.968;2023-04-25T02:14:20;7.18;118.99
64032;DHT22;50278;47.796;11.968;2023-04-25T02:16:56;7.27;118.99
64032;DHT22;50278;47.796;11.968;2023-04-25T02:19:22;7.19;118.99
64032;DHT22;50278;47.796;11.968;2023-04-25T02:21:47;7.11;118.99
64032;DHT22;50278;47.796;11.968;2023-04-25T02:24:13;6.99;118.99
64032;DHT22;50278;47.796;11.968;2023-04-25T02:26:38;6.91;118.99
64032;DHT22;50278;47.796;11.968;2023-04-25T02:29:07;6.88;118.99
64032;DHT22;50278;47.796;11.968;2023-04-25T02:31:34;6.95;118.99
64032;DHT22;50278;47.796;11.968;2023-04-25T02:33:59;6.88;118.99
64032;DHT22;50278;47.796;11.968;2023-04-25T02:36:26;6.91;118.99
64032;DHT22;50278;47.796;11.968;2023-04-25T02:38:52;6.99;118.99
64032;DHT22;50278;47.796;11.968;2023-04-25T02:41:19;7.03;118.99
64032;DHT22;50278;47.796;11.968;2023-04-25T02:43:46;7.00;118.99
64032;DHT22;50278;47.796;11.968;2023-04-25T02:46:12;7.04;118.99
64032;DHT22;50278;47.796;11.968;2023-04-25T02:48:38;7.05;118.99
64032;DHT22;50278;47.796;11.968;2023-04-25T02:51:04;7.15;118.99
64032;DHT22;50278;47.796;11.968;2023-04-25T02:53:29;7.18;118.99
64032;DHT22;50278;47.796;11.968;2023-04-25T02:55:55;7.23;118.99
64032;DHT22;50278;47.796;11.968;2023-04-25T02:58:23;7.23;118.99
64032;DHT22;50278;47.796;11.968;2023-04-25T03:00:51;7.26;118.99
64032;DHT22;50278;47.796;11.968;2023-04-25T03:03:16;7.34;118.99
64032;DHT22;50278;47.796;11.968;2023-04-25T03:05:44;7.44;118.99
64032;DHT22;50278;47.796;11.968;2023-04-25T03:08:10;7.38;118.99
64032;DHT22;50278;47.796;11.968;2023-04-25T03:10:38;7.34;118.99
64032;DHT22;50278;47.796;11.968;2023-04-25T03:13:06;7.40;118.99
64032;DHT22;50278;47.796;11.968;2023-04-25T03:15:32;7.38;118.99
64032;DHT22;50278;47.796;11.968;2023-04-25T03:17:57;7.31;118.99
64032;DHT22;50278;47.796;11.968;2023-04-25T03:20:23;7.31;118.99
64032;DHT22;50278;47.796;11.968;2023-04-25T03:22:48;7.31;118.99
64032;DHT22;50278;47.796;11.968;2023-04-25T03:25:14;7.38;118.99
64032;DHT22;50278;47.796;11.968;2023-04-25T03:27:41;7.34;118.99
64032;DHT22;50278;47.796;11.968;2023-04-25T03:30:07;7.27;118.99
64032;DHT22;50278;47.796;11.968;2023-04-25T03:32:34;7.25;118.99
64032;DHT22;50278;47.796;11.968;2023-04-25T03:35:00;7.08;118.99
64032;DHT22;50278;47.796;11.968;2023-04-25T03:37:27;7.00;118.99
64032;DHT22;50278;47.796;11.968;2023-04-25T03:39:53;6.96;118.99
64032;DHT22;50278;47.796;11.968;2023-04-25T03:42:20;6.94;118.99
64032;DHT22;50278;47.796;11.968;2023-04-25T03:44:48;6.84;118.99
64032;DHT22;50278;47.796;11.968;2023-04-25T03:47:14;6.78;118.99
64032;DHT22;50278;47.796;11.968;2023-04-25T03:49:41;6.70;118.99
64032;DHT22;50278;47.796;11.968;2023-04-25T03:52:07;6.75;118.99
64032;DHT22;50278;47.796;11.968;2023-04-25T03:54:37;6.72;118.99
64032;DHT22;50278;47.796;11.968;2023-04-25T03:57:06;6.65;118.99
64032;DHT22;50278;47.796;11.968;2023-04-25T03:59:34;6.56;118.99
64032;DHT22;50278;47.796;11.968;2023-04-25T04:02:00;6.75;118.99
64032;DHT22;50278;47.796;11.968;2023-04-25T04:04:27;6.72;118.99
64032;DHT22;50278;47.796;11.968;2023-04-25T04:06:52;6.83;118.99
64032;DHT22;50278;47.796;11.968;2023-04-25T04:09:23;6.70;118.99
64032;DHT22;50278;47.796;11.968;2023-04-25T04:11:49;6.88;118.99
64032;DHT22;50278;47.796;11.968;2023-04-25T04:14:14;6.93;118.99
64032;DHT22;50278;47.796;11.968;2023-04-25T04:16:45;7.07;118.99
64032;DHT22;50278;47.796;11.968;2023-04-25T04:19:10;7.09;118.99
64032;DHT22;50278;47.796;11.968;2023-04-25T04:21:38;7.00;118.99
64032;DHT22;50278;47.796;11.968;2023-04-25T04:24:07;6.95;118.99
64032;DHT22;50278;47.796;11.968;2023-04-25T04:26:44;6.94;118.99
64032;DHT22;50278;47.796;11.968;2023-04-25T04:29:31;6.86;118.99
64032;DHT22;50278;47.796;11.968;2023-04-25T04:32:00;6.80;118.99
64032;DHT22;50278;47.796;11.968;2023-04-25T04:34:27;6.68;118.99
64032;DHT22;50278;47.796;11.968;2023-04-25T04:36:53;6.51;118.99
64032;DHT22;50278;47.796;11.968;2023-04-25T04:39:18;6.48;118.99
64032;DHT22;50278;47.796;11.968;2023-04-25T04:42:01;6.50;118.99
64032;DHT22;50278;47.796;11.968;2023-04-25T04:44:46;6.51;118.99
64032;DHT22;50278;47.796;11.968;2023-04-25T04:47:43;6.53;118.99
64032;DHT22;50278;47.796;11.968;2023-04-25T04:50:14;6.46;118.99
64032;DHT22;50278;47.796;11.968;2023-04-25T04:53:01;6.26;118.99
64032;DHT22;50278;47.796;11.968;2023-04-25T04:55:46;6.17;118.99
64032;DHT22;50278;47.796;11.968;2023-04-25T04:58:41;6.02;118.99
64032;DHT22;50278;47.796;11.968;2023-04-25T05:01:22;5.79;118.99
64032;DHT22;50278;47.796;11.968;2023-04-25T05:04:07;5.74;118.99
64032;DHT22;50278;47.796;11.968;2023-04-25T05:07:05;5.77;118.99
64032;DHT22;50278;47.796;11.968;2023-04-25T05:09:34;5.90;118.99
64032;DHT22;50278;47.796;11.968;2023-04-25T05:12:29;6.07;118.99
64032;DHT22;50278;47.796;11.968;2023-04-25T05:15:07;6.16;118.99
64032;DHT22;50278;47.796;11.968;2023-04-25T05:18:12;6.48;118.99
64032;DHT22;50278;47.796;11.968;2023-04-25T05:20:46;6.74;118.99
64032;DHT22;50278;47.796;11.968;2023-04-25T05:23:34;6.88;118.99
64032;DHT22;50278;47.796;11.968;2023-04-25T05:26:11;6.84;118.99
64032;DHT22;50278;47.796;11.968;2023-04-25T05:28:51;7.02;118.99
64032;DHT22;50278;47.796;11.968;2023-04-25T05:31:39;7.10;118.99
64032;DHT22;50278;47.796;11.968;2023-04-25T05:34:11;7.31;118.99
64032;DHT22;50278;47.796;11.968;2023-04-25T05:36:55;7.24;118.99
64032;DHT22;50278;47.796;11.968;2023-04-25T05:39:21;7.13;118.99
64032;DHT22;50278;47.796;11.968;2023-04-25T05:42:15;7.24;118.99
64032;DHT22;50278;47.796;11.968;2023-04-25T05:45:00;7.40;118.99
64032;DHT22;50278;47.796;11.968;2023-04-25T05:47:50;7.48;118.99
64032;DHT22;50278;47.796;11.968;2023-04-25T05:50:20;7.70;118.99
64032;DHT22;50278;47.796;11.968;2023-04-25T05:52:55;7.61;118.99
64032;DHT22;50278;47.796;11.968;2023-04-25T05:55:27;7.81;118.99
64032;DHT22;50278;47.796;11.968;2023-04-25T05:57:53;7.64;118.99
64032;DHT22;50278;47.796;11.968;2023-04-25T06:00:19;7.86;118.99
64032;DHT22;50278;47.796;11.968;2023-04-25T06:02:48;7.90;118.99
64032;DHT22;50278;47.796;11.968;2023-04-25T06:05:14;8.05;118.99
64032;DHT22;50278;47.796;11.968;2023-04-25T06:07:39;8.01;118.99
64032;DHT22;50278;47.796;11.968;2023-04-25T06:10:06;8.08;118.99
64032;DHT22;50278;47.796;11.968;2023-04-25T06:12:34;8.11;118.99
64032;DHT22;50278;47.796;11.968;2023-04-25T06:15:00;8.09;118.99
64032;DHT22;50278;47.796;11.968;2023-04-25T06:17:26;8.43;118.99
64032;DHT22;50278;47.796;11.968;2023-04-25T06:19:52;8.28;118.99
64032;DHT22;50278;47.796;11.968;2023-04-25T06:22:18;8.16;118.99
64032;DHT22;50278;47.796;11.968;2023-04-25T06:24:44;8.36;118.99
64032;DHT22;50278;47.796;11.968;2023-04-25T06:27:11;8.76;118.99
64032;DHT22;50278;47.796;11.968;2023-04-25T06:29:36;8.52;118.99
64032;DHT22;50278;47.796;11.968;2023-04-25T06:32:02;8.86;118.99
64032;DHT22;50278;47.796;11.968;2023-04-25T06:34:28;8.68;118.99
64032;DHT22;50278;47.796;11.968;2023-04-25T06:36:54;8.62;118.99
64032;DHT22;50278;47.796;11.968;2023-04-25T06:39:20;8.46;118.99
64032;DHT22;50278;47.796;11.968;2023-04-25T06:41:48;8.43;118.99
64032;DHT22;50278;47.796;11.968;2023-04-25T06:44:34;8.51;118.99
64032;DHT22;50278;47.796;11.968;2023-04-25T06:46:59;8.34;118.99
64032;DHT22;50278;47.796;11.968;2023-04-25T06:49:25;8.52;118.99
64032;DHT22;50278;47.796;11.968;2023-04-25T06:51:51;8.85;118.99
64032;DHT22;50278;47.796;11.968;2023-04-25T06:54:16;8.82;118.99
64032;DHT22;50278;47.796;11.968;2023-04-25T06:56:53;8.93;118.99
64032;DHT22;50278;47.796;11.968;2023-04-25T06:59:19;8.88;118.99
64032;DHT22;50278;47.796;11.968;2023-04-25T07:01:45;8.92;118.99
64032;DHT22;50278;47.796;11.968;2023-04-25T07:04:16;9.05;118.99
64032;DHT22;50278;47.796;11.968;2023-04-25T07:06:50;9.33;118.99
64032;DHT22;50278;47.796;11.968;2023-04-25T07:09:20;9.55;118.99
64032;DHT22;50278;47.796;11.968;2023-04-25T07:11:48;9.65;118.99
64032;DHT22;50278;47.796;11.968;2023-04-25T07:14:13;9.67;118.99
64032;DHT22;50278;47.796;11.968;2023-04-25T07:16:39;9.91;118.99
64032;DHT22;50278;47.796;11.968;2023-04-25T07:19:05;9.85;118.99
64032;DHT22;50278;47.796;11.968;2023-04-25T07:21:31;9.97;118.99
64032;DHT22;50278;47.796;11.968;2023-04-25T07:23:58;10.13;118.99
64032;DHT22;50278;47.796;11.968;2023-04-25T07:26:30;10.36;118.99
64032;DHT22;50278;47.796;11.968;2023-04-25T07:29:13;10.13;113.26
64032;DHT22;50278;47.796;11.968;2023-04-25T07:31:39;10.54;112.16
64032;DHT22;50278;47.796;11.968;2023-04-25T07:34:04;10.78;109.46
64032;DHT22;50278;47.796;11.968;2023-04-25T07:36:31;10.72;105.63
64032;DHT22;50278;47.796;11.968;2023-04-25T07:38:56;10.81;102.86
64032;DHT22;50278;47.796;11.968;2023-04-25T07:41:22;11.09;102.73
64032;DHT22;50278;47.796;11.968;2023-04-25T07:43:48;7.17;118.99
64032;DHT22;50278;47.796;11.968;2023-04-25T07:46:13;5.69;109.99
64032;DHT22;50278;47.796;11.968;2023-04-25T07:48:39;3.79;105.61
64032;DHT22;50278;47.796;11.968;2023-04-25T07:51:04;6.00;117.83
64032;DHT22;50278;47.796;11.968;2023-04-25T07:53:31;5.08;118.99
64032;DHT22;50278;47.796;11.968;2023-04-25T07:56:03;5.25;104.53
64032;DHT22;50278;47.796;11.968;2023-04-25T07:58:32;4.74;118.99
64032;DHT22;50278;47.796;11.968;2023-04-25T08:01:01;4.20;111.81
64032;DHT22;50278;47.796;11.968;2023-04-25T08:03:32;3.79;118.99
64032;DHT22;50278;47.796;11.968;2023-04-25T08:05:58;3.39;118.99
64032;DHT22;50278;47.796;11.968;2023-04-25T08:08:26;4.35;118.99
64032;DHT22;50278;47.796;11.968;2023-04-25T08:10:52;5.51;105.69
64032;DHT22;50278;47.796;11.968;2023-04-25T08:13:18;4.26;117.34
64032;DHT22;50278;47.796;11.968;2023-04-25T08:15:44;3.45;118.99
64032;DHT22;50278;47.796;11.968;2023-04-25T08:18:10;3.08;118.99
64032;DHT22;50278;47.796;11.968;2023-04-25T08:20:35;2.43;118.99
64032;DHT22;50278;47.796;11.968;2023-04-25T08:23:04;2.88;118.99
64032;DHT22;50278;47.796;11.968;2023-04-25T08:25:42;3.25;118.99
64032;DHT22;50278;47.796;11.968;2023-04-25T08:28:10;2.28;118.99
64032;DHT22;50278;47.796;11.968;2023-04-25T08:30:36;2.66;118.99
64032;DHT22;50278;47.796;11.968;2023-04-25T08:33:02;1.77;118.99
64032;DHT22;50278;47.796;11.968;2023-04-25T08:35:46;1.23;118.99
64032;DHT22;50278;47.796;11.968;2023-04-25T08:38:13;2.53;118.99
64032;DHT22;50278;47.796;11.968;2023-04-25T08:40:39;1.97;118.99
64032;DHT22;50278;47.796;11.968;2023-04-25T08:43:13;2.89;118.99
64032;DHT22;50278;47.796;11.968;2023-04-25T08:45:41;2.42;118.99
64032;DHT22;50278;47.796;11.968;2023-04-25T08:48:14;2.64;118.99
64032;DHT22;50278;47.796;11.968;2023-04-25T08:50:53;2.58;118.99
64032;DHT22;50278;47.796;11.968;2023-04-25T08:53:30;2.01;118.99
64032;DHT22;50278;47.796;11.968;2023-04-25T08:56:00;1.99;118.99
64032;DHT22;50278;47.796;11.968;2023-04-25T08:58:27;2.01;118.99
64032;DHT22;50278;47.796;11.968;2023-04-25T09:00:53;2.52;118.99
64032;DHT22;50278;47.796;11.968;2023-04-25T09:03:21;1.64;118.99
64032;DHT22;50278;47.796;11.968;2023-04-25T09:05:47;1.83;118.99
64032;DHT22;50278;47.796;11.968;2023-04-25T09:08:14;1.57;118.99
64032;DHT22;50278;47.796;11.968;2023-04-25T09:10:41;2.14;118.99
64032;DHT22;50278;47.796;11.968;2023-04-25T09:13:07;2.44;118.99
64032;DHT22;50278;47.796;11.968;2023-04-25T09:16:10;3.47;118.99
64032;DHT22;50278;47.796;11.968;2023-04-25T09:18:53;3.28;118.99
64032;DHT22;50278;47.796;11.968;2023-04-25T09:21:22;2.50;118.99
64032;DHT22;50278;47.796;11.968;2023-04-25T09:23:49;2.51;118.99
64032;DHT22;50278;47.796;11.968;2023-04-25T09:26:19;1.71;118.99
64032;DHT22;50278;47.796;11.968;2023-04-25T09:28:45;2.64;118.99
64032;DHT22;50278;47.796;11.968;2023-04-25T09:31:22;2.30;118.99
64032;DHT22;50278;47.796;11.968;2023-04-25T09:33:49;3.12;118.99
64032;DHT22;50278;47.796;11.968;2023-04-25T09:36:15;9.53;118.99
64032;DHT22;50278;47.796;11.968;2023-04-25T09:38:59;9.14;118.99
64032;DHT22;50278;47.796;11.968;2023-04-25T09:41:28;6.88;118.99
64032;DHT22;50278;47.796;11.968;2023-04-25T09:43:57;4.95;118.99
64032;DHT22;50278;47.796;11.968;2023-04-25T09:46:33;7.04;118.99
64032;DHT22;50278;47.796;11.968;2023-04-25T09:49:06;6.74;118.99
64032;DHT22;50278;47.796;11.968;2023-04-25T09:51:37;6.31;118.99
64032;DHT22;50278;47.796;11.968;2023-04-25T09:54:05;6.45;118.99
64032;DHT22;50278;47.796;11.968;2023-04-25T09:56:38;7.00;118.99
64032;DHT22;50278;47.796;11.968;2023-04-25T09:59:06;4.97;118.99
64032;DHT22;50278;47.796;11.968;2023-04-25T10:01:34;5.39;118.99
64032;DHT22;50278;47.796;11.968;2023-04-25T10:04:10;6.21;118.99
64032;DHT22;50278;47.796;11.968;2023-04-25T10:06:45;7.56;118.99
64032;DHT22;50278;47.796;11.968;2023-04-25T10:09:15;5.31;118.99
64032;DHT22;50278;47.796;11.968;2023-04-25T10:11:44;5.77;118.99
64032;DHT22;50278;47.796;11.968;2023-04-25T10:14:10;5.25;118.99
64032;DHT22;50278;47.796;11.968;2023-04-25T10:16:37;6.69;118.99
64032;DHT22;50278;47.796;11.968;2023-04-25T10:19:22;6.11;118.99
64032;DHT22;50278;47.796;11.968;2023-04-25T10:21:55;5.46;118.99
64032;DHT22;50278;47.796;11.968;2023-04-25T10:24:22;5.79;118.99
64032;DHT22;50278;47.796;11.968;2023-04-25T10:26:49;4.52;118.99
64032;DHT22;50278;47.796;11.968;2023-04-25T10:29:22;4.82;118.99
64032;DHT22;50278;47.796;11.968;2023-04-25T10:31:49;5.24;118.99
64032;DHT22;50278;47.796;11.968;2023-04-25T10:34:16;6.10;118.99
64032;DHT22;50278;47.796;11.968;2023-04-25T10:36:42;5.92;118.99
64032;DHT22;50278;47.796;11.968;2023-04-25T10:39:08;4.58;118.99
64032;DHT22;50278;47.796;11.968;2023-04-25T10:41:59;4.66;118.99
64032;DHT22;50278;47.796;11.968;2023-04-25T10:44:27;4.13;118.99
64032;DHT22;50278;47.796;11.968;2023-04-25T10:46:58;5.26;118.99
64032;DHT22;50278;47.796;11.968;2023-04-25T10:49:35;5.70;118.99
64032;DHT22;50278;47.796;11.968;2023-04-25T10:52:32;6.85;118.99
64032;DHT22;50278;47.796;11.968;2023-04-25T10:54:59;5.98;118.99
64032;DHT22;50278;47.796;11.968;2023-04-25T10:57:50;5.11;118.99
64032;DHT22;50278;47.796;11.968;2023-04-25T11:00:18;5.26;118.99
64032;DHT22;50278;47.796;11.968;2023-04-25T11:02:46;4.42;118.99
64032;DHT22;50278;47.796;11.968;2023-04-25T11:05:20;4.42;118.99
64032;DHT22;50278;47.796;11.968;2023-04-25T11:07:52;4.72;118.99
64032;DHT22;50278;47.796;11.968;2023-04-25T11:10:18;3.54;118.99
64032;DHT22;50278;47.796;11.968;2023-04-25T11:12:45;4.19;118.99
64032;DHT22;50278;47.796;11.968;2023-04-25T11:15:12;3.85;118.99
64032;DHT22;50278;47.796;11.968;2023-04-25T11:17:38;3.19;118.99
64032;DHT22;50278;47.796;11.968;2023-04-25T11:20:07;3.65;118.99
64032;DHT22;50278;47.796;11.968;2023-04-25T11:22:37;3.80;118.99
64032;DHT22;50278;47.796;11.968;2023-04-25T11:25:11;3.46;118.99
64032;DHT22;50278;47.796;11.968;2023-04-25T11:30:15;2.57;118.99
64032;DHT22;50278;47.796;11.968;2023-04-25T11:32:41;2.22;118.99
64032;DHT22;50278;47.796;11.968;2023-04-25T11:35:09;2.25;118.99
64032;DHT22;50278;47.796;11.968;2023-04-25T11:37:35;2.60;118.99
64032;DHT22;50278;47.796;11.968;2023-04-25T11:40:02;1.68;118.99
64032;DHT22;50278;47.796;11.968;2023-04-25T11:42:28;1.69;118.99
64032;DHT22;50278;47.796;11.968;2023-04-25T11:44:54;1.01;118.99
64032;DHT22;50278;47.796;11.968;2023-04-25T11:47:19;7.98;118.99
64032;DHT22;50278;47.796;11.968;2023-04-25T11:49:45;8.26;118.99
64032;DHT22;50278;47.796;11.968;2023-04-25T11:52:10;7.98;118.99
64032;DHT22;50278;47.796;11.968;2023-04-25T11:54:37;7.56;118.99
64032;DHT22;50278;47.796;11.968;2023-04-25T11:57:04;7.32;118.99
64032;DHT22;50278;47.796;11.968;2023-04-25T11:59:29;7.30;118.99
64032;DHT22;50278;47.796;11.968;2023-04-25T12:01:55;7.37;118.99
64032;DHT22;50278;47.796;11.968;2023-04-25T12:04:24;7.17;118.99
64032;DHT22;50278;47.796;11.968;2023-04-25T12:06:52;6.97;118.99
64032;DHT22;50278;47.796;11.968;2023-04-25T12:09:20;6.91;118.99
64032;DHT22;50278;47.796;11.968;2023-04-25T12:11:54;6.96;118.99
64032;DHT22;50278;47.796;11.968;2023-04-25T12:14:31;6.94;118.99
64032;DHT22;50278;47.796;11.968;2023-04-25T12:16:59;6.87;118.99
64032;DHT22;50278;47.796;11.968;2023-04-25T12:19:25;6.87;118.99
64032;DHT22;50278;47.796;11.968;2023-04-25T12:21:52;6.93;118.99
64032;DHT22;50278;47.796;11.968;2023-04-25T12:24:22;7.01;118.99
64032;DHT22;50278;47.796;11.968;2023-04-25T12:29:27;6.79;118.99
64032;DHT22;50278;47.796;11.968;2023-04-25T12:31:54;6.69;118.99
64032;DHT22;50278;47.796;11.968;2023-04-25T12:34:21;6.68;118.99
64032;DHT22;50278;47.796;11.968;2023-04-25T12:36:48;6.84;118.99
64032;DHT22;50278;47.796;11.968;2023-04-25T12:39:17;6.83;118.99
64032;DHT22;50278;47.796;11.968;2023-04-25T12:41:43;7.09;118.99
64032;DHT22;50278;47.796;11.968;2023-04-25T12:44:09;8.11;118.99
64032;DHT22;50278;47.796;11.968;2023-04-25T12:46:35;8.77;118.99
64032;DHT22;50278;47.796;11.968;2023-04-25T12:49:01;9.14;118.99
64032;DHT22;50278;47.796;11.968;2023-04-25T12:51:26;9.57;118.99
64032;DHT22;50278;47.796;11.968;2023-04-25T12:53:53;10.25;118.99
64032;DHT22;50278;47.796;11.968;2023-04-25T12:56:19;9.89;118.99
64032;DHT22;50278;47.796;11.968;2023-04-25T12:58:45;10.43;118.99
64032;DHT22;50278;47.796;11.968;2023-04-25T13:01:10;10.67;118.99
64032;DHT22;50278;47.796;11.968;2023-04-25T13:03:37;10.98;118.99
64032;DHT22;50278;47.796;11.968;2023-04-25T13:06:03;12.25;118.99
64032;DHT22;50278;47.796;11.968;2023-04-25T13:08:29;13.77;118.99
64032;DHT22;50278;47.796;11.968;2023-04-25T13:10:55;14.43;100.37
64032;DHT22;50278;47.796;11.968;2023-04-25T13:13:20;13.30;106.12
64032;DHT22;50278;47.796;11.968;2023-04-25T13:15:46;13.92;105.38
64032;DHT22;50278;47.796;11.968;2023-04-25T13:18:11;13.11;102.32
64032;DHT22;50278;47.796;11.968;2023-04-25T13:20:37;12.13;113.67
64032;DHT22;50278;47.796;11.968;2023-04-25T13:23:07;11.52;118.99
64032;DHT22;50278;47.796;11.968;2023-04-25T13:25:33;10.21;118.99
64032;DHT22;50278;47.796;11.968;2023-04-25T13:27:59;9.89;118.99
64032;DHT22;50278;47.796;11.968;2023-04-25T13:30:25;9.03;118.99
64032;DHT22;50278;47.796;11.968;2023-04-25T13:32:50;8.43;118.99
64032;DHT22;50278;47.796;11.968;2023-04-25T13:35:16;7.64;118.99
64032;DHT22;50278;47.796;11.968;2023-04-25T13:37:41;7.20;118.99
64032;DHT22;50278;47.796;11.968;2023-04-25T13:40:09;6.99;118.99
64032;DHT22;50278;47.796;11.968;2023-04-25T13:42:39;6.93;118.99
64032;DHT22;50278;47.796;11.968;2023-04-25T13:45:06;7.11;118.99
64032;DHT22;50278;47.796;11.968;2023-04-25T13:47:32;7.32;118.99
64032;DHT22;50278;47.796;11.968;2023-04-25T13:49:57;7.52;118.99
64032;DHT22;50278;47.796;11.968;2023-04-25T13:52:23;7.90;118.99
64032;DHT22;50278;47.796;11.968;2023-04-25T13:54:52;8.05;118.99
64032;DHT22;50278;47.796;11.968;2023-04-25T13:57:18;7.75;118.99
64032;DHT22;50278;47.796;11.968;2023-04-25T13:59:43;7.90;118.99
64032;DHT22;50278;47.796;11.968;2023-04-25T14:02:09;7.69;118.99
64032;DHT22;50278;47.796;11.968;2023-04-25T14:04:34;7.84;118.99
64032;DHT22;50278;47.796;11.968;2023-04-25T14:07:00;7.76;118.99
64032;DHT22;50278;47.796;11.968;2023-04-25T14:09:27;7.67;118.99
64032;DHT22;50278;47.796;11.968;2023-04-25T14:11:53;7.53;118.99
64032;DHT22;50278;47.796;11.968;2023-04-25T14:14:22;7.32;118.99
64032;DHT22;50278;47.796;11.968;2023-04-25T14:16:49;7.34;118.99
64032;DHT22;50278;47.796;11.968;2023-04-25T14:19:18;7.26;118.99
64032;DHT22;50278;47.796;11.968;2023-04-25T14:21:43;7.22;118.99
64032;DHT22;50278;47.796;11.968;2023-04-25T14:24:09;7.24;118.99
64032;DHT22;50278;47.796;11.968;2023-04-25T14:26:36;6.91;118.99
64032;DHT22;50278;47.796;11.968;2023-04-25T14:29:05;6.64;118.99
64032;DHT22;50278;47.796;11.968;2023-04-25T14:31:32;6.39;118.99
64032;DHT22;50278;47.796;11.968;2023-04-25T14:33:58;6.26;118.99
64032;DHT22;50278;47.796;11.968;2023-04-25T14:36:24;6.21;118.99
64032;DHT22;50278;47.796;11.968;2023-04-25T14:38:49;6.27;118.99
64032;DHT22;50278;47.796;11.968;2023-04-25T14:41:15;6.33;118.99
64032;DHT22;50278;47.796;11.968;2023-04-25T14:43:40;6.26;118.99
64032;DHT22;50278;47.796;11.968;2023-04-25T14:46:06;6.46;118.99
64032;DHT22;50278;47.796;11.968;2023-04-25T14:48:33;6.69;118.99
64032;DHT22;50278;47.796;11.968;2023-04-25T14:50:59;6.54;118.99
64032;DHT22;50278;47.796;11.968;2023-04-25T14:53:25;6.72;118.99
64032;DHT22;50278;47.796;11.968;2023-04-25T14:55:52;6.55;118.99
64032;DHT22;50278;47.796;11.968;2023-04-25T14:58:17;6.59;118.99
64032;DHT22;50278;47.796;11.968;2023-04-25T15:00:43;6.50;118.99
64032;DHT22;50278;47.796;11.968;2023-04-25T15:03:09;6.38;118.99
64032;DHT22;50278;47.796;11.968;2023-04-25T15:05:37;6.51;118.99
64032;DHT22;50278;47.796;11.968;2023-04-25T15:08:03;6.56;118.99
64032;DHT22;50278;47.796;11.968;2023-04-25T15:10:28;6.60;118.99
64032;DHT22;50278;47.796;11.968;2023-04-25T15:12:54;6.64;118.99
64032;DHT22;50278;47.796;11.968;2023-04-25T15:15:20;6.82;118.99
64032;DHT22;50278;47.796;11.968;2023-04-25T15:17:46;7.00;118.99
64032;DHT22;50278;47.796;11.968;2023-04-25T15:20:12;6.95;118.99
64032;DHT22;50278;47.796;11.968;2023-04-25T15:22:39;6.82;118.99
64032;DHT22;50278;47.796;11.968;2023-04-25T15:25:06;6.96;118.99
64032;DHT22;50278;47.796;11.968;2023-04-25T15:27:33;6.87;118.99
64032;DHT22;50278;47.796;11.968;2023-04-25T15:30:04;6.74;118.99
64032;DHT22;50278;47.796;11.968;2023-04-25T15:32:31;6.86;118.99